Time;durP1;ratioP1;P1;durP2;ratioP2;P2;SDS_P1;SDS_P2;PMS_P1;PMS_P2;Temp;Humidity;BMP_temperature;BMP_pressure;BME280_temperature;BME280_humidity;BME280_pressure;Samples;Min_cycle;Max_cycle;Signal;HPM_P1;HPM_P2
2022/09/11 00:01:15;;;;;;;32.80;24.05;;;14.30;99.90;;;;;;4979354;28;20050;-78
2022/09/11 00:03:42;;;;;;;32.40;22.73;;;14.30;99.90;;;;;;4980973;28;20047;-75
2022/09/11 00:06:11;;;;;;;35.90;24.05;;;14.30;99.90;;;;;;5003947;28;20104;-77
2022/09/11 00:08:38;;;;;;;34.22;24.95;;;14.40;99.90;;;;;;4999816;28;20092;-78
2022/09/11 00:11:16;;;;;;;33.28;24.65;;;14.40;99.90;;;;;;4989253;28;20157;-76
2022/09/11 00:13:43;;;;;;;30.85;22.92;;;14.40;99.90;;;;;;4995214;28;20093;-76
2022/09/11 00:16:24;;;;;;;28.80;22.65;;;14.50;99.90;;;;;;4984217;28;20042;-78
2022/09/11 00:18:49;;;;;;;31.92;25.13;;;14.40;99.90;;;;;;4983169;28;20060;-79
2022/09/11 00:21:16;;;;;;;32.97;24.10;;;14.40;99.90;;;;;;5001739;28;20413;-79
2022/09/11 00:23:42;;;;;;;30.30;24.75;;;14.50;99.90;;;;;;5005317;28;20034;-77
2022/09/11 00:26:08;;;;;;;33.40;25.70;;;14.50;99.90;;;;;;4982057;28;21642;-74
2022/09/11 00:28:34;;;;;;;34.95;26.13;;;14.60;99.90;;;;;;4985339;28;20045;-78
2022/09/11 00:31:06;;;;;;;35.50;25.65;;;14.60;99.90;;;;;;5002993;28;20037;-78
2022/09/11 00:33:33;;;;;;;34.05;24.30;;;14.60;99.90;;;;;;4985748;28;20045;-77
2022/09/11 00:36:12;;;;;;;34.35;25.90;;;14.50;99.90;;;;;;5003288;28;20038;-77
2022/09/11 00:38:38;;;;;;;31.15;25.30;;;14.50;99.90;;;;;;4994692;28;20121;-78
2022/09/11 00:41:07;;;;;;;32.78;24.42;;;14.50;99.90;;;;;;5010261;28;20116;-79
2022/09/11 00:43:54;;;;;;;34.63;24.60;;;14.50;99.90;;;;;;4998815;28;20045;-75
2022/09/11 00:46:21;;;;;;;33.30;23.27;;;14.40;99.90;;;;;;4995912;28;20140;-80
2022/09/11 00:48:48;;;;;;;28.10;21.98;;;14.40;99.90;;;;;;4987111;28;20038;-76
2022/09/11 00:51:18;;;;;;;32.17;24.10;;;14.30;99.90;;;;;;4989803;28;20149;-77
2022/09/11 00:53:46;;;;;;;26.67;21.08;;;14.30;99.90;;;;;;5001429;28;20041;-76
2022/09/11 00:56:12;;;;;;;30.10;22.88;;;14.10;99.90;;;;;;4995758;28;20084;-76
2022/09/11 00:58:42;;;;;;;28.33;21.45;;;14.00;99.90;;;;;;4985116;28;20405;-77
2022/09/11 01:01:09;;;;;;;23.02;19.95;;;14.00;99.90;;;;;;4987198;28;20140;-76
2022/09/11 01:03:35;;;;;;;27.05;20.67;;;14.00;99.90;;;;;;5002889;28;20129;-77
2022/09/11 01:06:02;;;;;;;23.23;19.63;;;13.90;99.90;;;;;;4999196;28;20128;-77
2022/09/11 01:08:28;;;;;;;23.27;20.15;;;13.90;99.90;;;;;;4985094;28;20042;-79
2022/09/11 01:10:57;;;;;;;25.30;20.27;;;13.90;99.90;;;;;;4988981;28;20044;-76
2022/09/11 01:13:40;;;;;;;21.85;19.42;;;13.80;99.90;;;;;;4990987;28;20054;-77
2022/09/11 01:16:15;;;;;;;23.55;18.80;;;13.80;99.90;;;;;;4997325;28;20450;-75
2022/09/11 01:19:02;;;;;;;25.20;19.35;;;13.70;99.90;;;;;;4998796;28;20061;-77
2022/09/11 01:21:37;;;;;;;23.38;18.38;;;13.70;99.90;;;;;;4979039;28;20116;-76
2022/09/11 01:24:34;;;;;;;22.83;17.83;;;13.60;99.90;;;;;;5022115;28;20046;-76
2022/09/11 01:27:31;;;;;;;20.42;18.13;;;13.60;99.90;;;;;;4952650;28;20371;-80
2022/09/11 01:30:06;;;;;;;25.10;18.58;;;13.60;99.90;;;;;;4965503;28;20043;-79
2022/09/11 01:32:34;;;;;;;20.92;17.63;;;13.60;99.90;;;;;;4973751;28;20121;-81
2022/09/11 01:35:02;;;;;;;25.45;17.85;;;13.50;99.90;;;;;;4967319;28;20155;-80
2022/09/11 01:37:46;;;;;;;24.48;18.45;;;13.50;99.90;;;;;;4953207;28;20585;-76
2022/09/11 01:40:23;;;;;;;20.77;17.92;;;13.50;99.90;;;;;;4956670;28;20382;-81
2022/09/11 01:42:51;;;;;;;23.65;17.58;;;13.40;99.90;;;;;;4973349;28;20121;-80
2022/09/11 01:45:18;;;;;;;20.67;17.13;;;13.40;99.90;;;;;;4970722;28;20089;-79
2022/09/11 01:47:48;;;;;;;20.92;16.85;;;13.30;99.90;;;;;;4955219;28;20101;-82
2022/09/11 01:50:16;;;;;;;20.40;17.02;;;13.30;99.90;;;;;;4954951;28;20046;-77
2022/09/11 01:52:52;;;;;;;19.92;16.30;;;13.30;99.90;;;;;;4970706;28;20041;-80
2022/09/11 01:55:33;;;;;;;24.92;17.92;;;13.30;99.90;;;;;;4969169;28;20048;-78
2022/09/11 01:58:08;;;;;;;20.73;16.73;;;13.30;99.90;;;;;;4982583;28;20070;-79
2022/09/11 02:00:35;;;;;;;20.38;15.88;;;13.30;99.90;;;;;;4965165;28;20038;-80
2022/09/11 02:03:09;;;;;;;19.35;15.10;;;13.20;99.90;;;;;;4971456;28;20035;-80
2022/09/11 02:05:57;;;;;;;19.23;16.60;;;13.30;99.90;;;;;;5007111;28;20045;-77
2022/09/11 02:08:42;;;;;;;19.38;15.18;;;13.20;99.90;;;;;;5001462;28;20049;-79
2022/09/11 02:11:11;;;;;;;19.08;15.20;;;13.20;99.90;;;;;;4989632;28;20070;-79
2022/09/11 02:13:58;;;;;;;16.73;14.75;;;13.10;99.90;;;;;;5008893;28;20049;-82
2022/09/11 02:16:34;;;;;;;19.05;14.85;;;13.10;99.90;;;;;;4987129;28;20065;-83
2022/09/11 02:19:13;;;;;;;16.63;14.88;;;13.10;99.90;;;;;;4999743;28;20033;-80
2022/09/11 02:21:39;;;;;;;20.52;13.95;;;13.00;99.90;;;;;;5001833;28;20072;-80
2022/09/11 02:24:05;;;;;;;18.10;15.20;;;13.10;99.90;;;;;;4990638;28;20085;-82
2022/09/11 02:26:36;;;;;;;19.58;14.65;;;13.00;99.90;;;;;;5001793;28;20451;-82
2022/09/11 02:29:02;;;;;;;17.02;14.00;;;13.00;99.90;;;;;;5002157;28;20427;-80
2022/09/11 02:31:28;;;;;;;18.02;14.43;;;12.90;99.90;;;;;;4986455;28;20446;-78
2022/09/11 02:33:53;;;;;;;17.02;14.80;;;12.90;99.90;;;;;;4987898;28;20046;-79
2022/09/11 02:36:34;;;;;;;18.08;14.73;;;13.00;99.90;;;;;;5021637;28;21476;-77
2022/09/11 02:39:15;;;;;;;20.88;15.05;;;13.00;99.90;;;;;;5008173;28;20067;-80
2022/09/11 02:41:54;;;;;;;16.38;13.13;;;13.00;99.90;;;;;;5019851;28;20073;-78
2022/09/11 02:44:36;;;;;;;19.75;14.35;;;13.00;99.90;;;;;;5014248;28;20054;-77
2022/09/11 02:47:37;;;;;;;18.55;13.40;;;13.00;99.90;;;;;;5016182;28;20048;-81
2022/09/11 02:50:21;;;;;;;17.45;14.13;;;13.10;99.90;;;;;;5007264;28;20108;-78
2022/09/11 02:53:02;;;;;;;15.25;13.65;;;13.10;99.90;;;;;;4998729;28;20076;-80
2022/09/11 02:55:45;;;;;;;16.63;14.00;;;13.20;99.90;;;;;;4982621;28;20137;-80
2022/09/11 02:58:25;;;;;;;15.57;13.65;;;13.20;99.90;;;;;;4983927;28;20065;-81
2022/09/11 03:00:52;;;;;;;14.77;13.27;;;13.30;99.90;;;;;;4969528;28;20042;-82
2022/09/11 03:03:19;;;;;;;17.58;13.52;;;13.30;99.90;;;;;;4973801;28;20060;-78
2022/09/11 03:05:46;;;;;;;17.63;13.70;;;13.40;99.90;;;;;;4995360;28;20158;-80
2022/09/11 03:08:13;;;;;;;20.42;14.40;;;13.40;99.90;;;;;;4969460;28;20050;-81
2022/09/11 03:10:39;;;;;;;15.52;13.52;;;13.40;99.90;;;;;;4985736;28;20050;-80
2022/09/11 03:13:04;;;;;;;15.95;13.40;;;13.40;99.90;;;;;;4979965;28;21205;-80
2022/09/11 03:15:30;;;;;;;15.70;13.75;;;13.30;99.90;;;;;;4985690;28;20080;-80
2022/09/11 03:17:56;;;;;;;15.20;12.50;;;13.30;99.90;;;;;;4982729;28;20042;-79
2022/09/11 03:20:22;;;;;;;15.18;11.63;;;13.40;99.90;;;;;;4985290;28;20052;-81
2022/09/11 03:22:48;;;;;;;13.85;11.20;;;13.30;99.90;;;;;;4985299;28;20073;-79
2022/09/11 03:25:14;;;;;;;15.77;12.13;;;13.30;99.90;;;;;;4980165;28;20140;-78
2022/09/11 03:27:40;;;;;;;18.40;11.63;;;13.30;99.90;;;;;;4977651;28;20082;-80
2022/09/11 03:30:07;;;;;;;14.95;11.57;;;13.30;99.90;;;;;;4987379;28;20097;-78
2022/09/11 03:32:33;;;;;;;12.27;10.80;;;13.40;99.90;;;;;;4979585;28;20397;-79
2022/09/11 03:35:00;;;;;;;13.27;11.07;;;13.40;99.90;;;;;;4984323;28;20045;-82
2022/09/11 03:37:25;;;;;;;13.48;10.80;;;13.40;99.90;;;;;;4979832;28;20054;-81
2022/09/11 03:39:53;;;;;;;12.65;10.35;;;13.40;99.90;;;;;;4997229;28;20050;-80
2022/09/11 03:42:19;;;;;;;13.77;10.10;;;13.40;99.90;;;;;;4999743;28;20089;-78
2022/09/11 03:44:45;;;;;;;9.85;8.85;;;13.40;99.90;;;;;;4982458;28;20045;-81
2022/09/11 03:47:11;;;;;;;10.38;8.98;;;13.40;99.90;;;;;;5001612;28;21714;-81
2022/09/11 03:49:36;;;;;;;11.23;9.00;;;13.30;99.90;;;;;;4982320;28;20496;-83
2022/09/11 03:52:03;;;;;;;8.75;7.85;;;13.30;99.90;;;;;;4983454;28;20203;-83
2022/09/11 03:54:28;;;;;;;8.90;7.80;;;13.20;99.90;;;;;;5018231;28;20130;-78
2022/09/11 03:56:54;;;;;;;12.45;6.97;;;13.20;99.90;;;;;;5007004;28;20468;-78
2022/09/11 03:59:20;;;;;;;7.45;6.53;;;13.10;99.90;;;;;;5002414;28;20042;-79
2022/09/11 04:01:49;;;;;;;8.93;6.72;;;13.00;99.90;;;;;;5003393;28;20493;-80
2022/09/11 04:04:15;;;;;;;7.72;6.60;;;13.00;99.90;;;;;;5003722;28;20042;-79
2022/09/11 04:06:40;;;;;;;6.35;5.78;;;12.90;99.90;;;;;;5006135;28;20177;-81
2022/09/11 04:09:07;;;;;;;6.10;5.47;;;12.90;99.90;;;;;;5003852;28;20397;-78
2022/09/11 04:11:37;;;;;;;6.50;5.90;;;12.90;99.90;;;;;;5004561;28;20084;-79
2022/09/11 04:14:03;;;;;;;6.47;5.88;;;12.80;99.90;;;;;;5005238;28;20453;-78
2022/09/11 04:16:31;;;;;;;11.13;6.78;;;12.80;99.90;;;;;;5001168;28;20129;-77
2022/09/11 04:19:01;;;;;;;7.95;6.60;;;12.80;99.90;;;;;;5004304;28;20061;-78
2022/09/11 04:21:28;;;;;;;8.48;6.50;;;12.80;99.90;;;;;;4988192;28;20035;-82
2022/09/11 04:23:55;;;;;;;12.55;6.82;;;12.80;99.90;;;;;;4987665;28;20030;-82
2022/09/11 04:26:24;;;;;;;7.30;6.60;;;12.80;99.90;;;;;;5003787;28;20568;-81
2022/09/11 04:28:50;;;;;;;7.68;6.78;;;12.70;99.90;;;;;;5002903;28;20511;-79
2022/09/11 04:31:17;;;;;;;7.65;6.68;;;12.70;99.90;;;;;;5002895;28;20087;-77
2022/09/11 04:33:43;;;;;;;7.32;6.68;;;12.70;99.90;;;;;;5000588;28;20387;-80
2022/09/11 04:36:12;;;;;;;10.70;6.78;;;12.60;99.90;;;;;;5004605;28;20552;-82
2022/09/11 04:38:39;;;;;;;7.75;6.78;;;12.60;99.90;;;;;;5000722;28;20042;-80
2022/09/11 04:41:06;;;;;;;7.30;6.60;;;12.50;99.90;;;;;;5008388;28;20980;-80
2022/09/11 04:43:37;;;;;;;8.05;7.22;;;12.50;99.90;;;;;;4991591;28;20054;-79
2022/09/11 04:46:05;;;;;;;9.35;6.75;;;12.50;99.90;;;;;;5004084;28;20038;-79
2022/09/11 04:48:31;;;;;;;7.13;6.32;;;12.60;99.90;;;;;;5005290;28;20045;-81
2022/09/11 04:51:04;;;;;;;8.45;6.03;;;12.70;99.90;;;;;;5001420;28;20057;-80
2022/09/11 04:53:31;;;;;;;6.45;5.35;;;12.70;99.90;;;;;;5003846;28;20042;-80
2022/09/11 04:56:04;;;;;;;7.45;5.70;;;12.60;99.90;;;;;;4991634;28;20044;-81
2022/09/11 04:58:30;;;;;;;9.20;6.10;;;12.60;99.90;;;;;;5004565;28;20116;-81
2022/09/11 05:00:56;;;;;;;7.18;5.97;;;12.60;99.90;;;;;;5005774;28;20477;-79
2022/09/11 05:03:23;;;;;;;6.78;5.63;;;12.60;99.90;;;;;;4984237;28;20208;-77
2022/09/11 05:05:49;;;;;;;8.68;5.68;;;12.60;99.90;;;;;;5004148;28;20051;-79
2022/09/11 05:08:17;;;;;;;7.03;6.32;;;12.50;99.90;;;;;;4976513;28;20343;-79
2022/09/11 05:10:43;;;;;;;9.55;6.53;;;12.50;99.90;;;;;;5003820;28;20042;-78
2022/09/11 05:13:10;;;;;;;7.80;6.10;;;12.50;99.90;;;;;;4991387;28;20050;-78
2022/09/11 05:15:36;;;;;;;8.32;6.32;;;12.50;99.90;;;;;;5002867;28;20109;-78
2022/09/11 05:18:02;;;;;;;10.30;6.13;;;12.60;99.90;;;;;;5010173;28;20401;-77
2022/09/11 05:20:29;;;;;;;6.50;5.90;;;12.50;99.90;;;;;;5003137;28;20030;-79
2022/09/11 05:22:57;;;;;;;7.28;6.25;;;12.50;99.90;;;;;;4988219;28;20108;-79
2022/09/11 05:25:24;;;;;;;6.97;6.25;;;12.50;99.90;;;;;;5007988;28;20038;-80
2022/09/11 05:27:50;;;;;;;6.53;5.93;;;12.50;99.90;;;;;;5007690;28;20430;-79
2022/09/11 05:30:15;;;;;;;6.20;5.70;;;12.50;99.90;;;;;;4994755;28;20092;-78
2022/09/11 05:32:41;;;;;;;6.80;6.20;;;12.50;99.90;;;;;;5012420;28;20034;-78
2022/09/11 05:35:07;;;;;;;6.78;6.18;;;12.50;99.90;;;;;;4986392;28;20122;-81
2022/09/11 05:37:32;;;;;;;6.25;5.60;;;12.50;99.90;;;;;;4986572;28;20042;-80
2022/09/11 05:39:58;;;;;;;5.97;5.38;;;12.60;99.90;;;;;;4981084;28;20077;-78
2022/09/11 05:42:27;;;;;;;6.20;5.60;;;12.60;99.90;;;;;;4987976;28;22083;-76
2022/09/11 05:44:53;;;;;;;6.25;5.75;;;12.70;99.90;;;;;;4985921;28;20073;-77
2022/09/11 05:47:19;;;;;;;6.28;5.78;;;12.70;99.90;;;;;;5000121;28;20377;-75
2022/09/11 05:49:44;;;;;;;10.02;5.95;;;12.80;99.90;;;;;;4995293;28;20049;-80
2022/09/11 05:52:10;;;;;;;7.22;6.03;;;12.80;99.90;;;;;;4998796;28;20073;-78
2022/09/11 05:54:35;;;;;;;7.00;6.13;;;12.80;99.90;;;;;;4986064;28;20366;-76
2022/09/11 05:57:01;;;;;;;6.45;5.70;;;12.90;99.90;;;;;;4998313;28;20041;-77
2022/09/11 05:59:27;;;;;;;6.60;6.00;;;13.00;99.90;;;;;;4983570;28;20132;-79
2022/09/11 06:01:53;;;;;;;6.80;6.20;;;13.00;99.90;;;;;;4998797;28;20042;-79
2022/09/11 06:04:18;;;;;;;9.63;7.07;;;13.10;99.90;;;;;;4997436;28;20046;-79
2022/09/11 06:06:46;;;;;;;3.05;2.75;;;13.20;99.90;;;;;;5000662;28;20060;-75
2022/09/11 06:09:12;;;;;;;13.80;10.60;;;13.40;99.90;;;;;;4996388;28;20135;-77
2022/09/11 06:11:38;;;;;;;15.05;12.13;;;13.50;99.90;;;;;;5001235;28;20501;-76
2022/09/11 06:14:03;;;;;;;16.95;12.32;;;13.60;99.90;;;;;;4985047;28;20058;-78
2022/09/11 06:16:33;;;;;;;12.95;11.50;;;13.70;99.90;;;;;;4984149;28;20128;-77
2022/09/11 06:18:58;;;;;;;13.77;12.27;;;13.80;99.90;;;;;;5000415;28;20045;-76
2022/09/11 06:21:26;;;;;;;12.25;10.93;;;13.90;99.90;;;;;;4978472;28;20099;-78
2022/09/11 06:23:52;;;;;;;14.73;11.63;;;13.90;99.90;;;;;;4984758;28;20477;-76
2022/09/11 06:26:20;;;;;;;13.07;11.65;;;14.00;99.90;;;;;;4999274;28;20092;-74
2022/09/11 06:28:47;;;;;;;16.02;12.18;;;14.00;99.90;;;;;;4983733;28;20044;-80
2022/09/11 06:31:17;;;;;;;13.45;11.18;;;14.00;99.90;;;;;;4994472;28;20096;-79
2022/09/11 06:33:44;;;;;;;18.05;13.77;;;14.10;99.90;;;;;;4997358;28;20374;-76
2022/09/11 06:36:12;;;;;;;17.45;14.07;;;14.20;99.90;;;;;;4986634;28;20053;-76
2022/09/11 06:38:38;;;;;;;17.48;14.02;;;14.30;99.90;;;;;;4998375;28;20041;-80
2022/09/11 06:41:06;;;;;;;14.20;11.80;;;14.30;99.90;;;;;;4999804;28;20031;-76
2022/09/11 06:43:32;;;;;;;14.38;11.93;;;14.40;99.90;;;;;;5000120;28;20076;-76
2022/09/11 06:46:04;;;;;;;18.23;13.00;;;14.40;99.90;;;;;;4999980;28;20164;-76
2022/09/11 06:48:29;;;;;;;16.63;13.00;;;14.40;99.90;;;;;;4983318;28;20489;-77
2022/09/11 06:50:56;;;;;;;14.95;13.18;;;14.50;99.90;;;;;;4983482;28;20048;-75
2022/09/11 06:53:21;;;;;;;14.45;12.95;;;14.50;99.90;;;;;;4999124;28;20034;-78
2022/09/11 06:55:47;;;;;;;17.83;14.45;;;14.50;99.90;;;;;;4983272;28;20053;-76
2022/09/11 06:58:13;;;;;;;15.95;14.20;;;14.70;99.90;;;;;;4982004;28;20037;-78
2022/09/11 07:00:39;;;;;;;18.10;13.70;;;14.80;99.90;;;;;;4996342;28;20101;-77
2022/09/11 07:03:05;;;;;;;20.10;15.25;;;14.90;99.90;;;;;;4989187;28;20189;-77
2022/09/11 07:05:32;;;;;;;20.05;15.05;;;14.90;99.90;;;;;;4996401;28;20743;-74
2022/09/11 07:07:58;;;;;;;21.42;14.45;;;15.00;99.90;;;;;;4999269;28;20069;-78
2022/09/11 07:10:24;;;;;;;17.27;15.13;;;15.10;99.90;;;;;;5001570;28;20433;-75
2022/09/11 07:12:52;;;;;;;21.52;17.10;;;15.20;99.90;;;;;;4981577;28;20061;-78
2022/09/11 07:15:18;;;;;;;17.05;15.13;;;15.40;99.90;;;;;;4981899;28;20451;-79
2022/09/11 07:17:43;;;;;;;20.27;16.13;;;15.60;99.90;;;;;;5002925;28;20068;-78
2022/09/11 07:20:11;;;;;;;21.30;17.48;;;15.80;99.90;;;;;;4999394;28;20037;-84
2022/09/11 07:22:37;;;;;;;21.05;17.45;;;16.00;99.90;;;;;;4981768;28;20284;-79
2022/09/11 07:25:03;;;;;;;27.00;19.00;;;16.20;99.90;;;;;;4999393;28;20050;-77
2022/09/11 07:27:30;;;;;;;21.25;17.38;;;16.40;99.90;;;;;;4999933;28;20038;-77
2022/09/11 07:29:56;;;;;;;20.73;17.88;;;16.50;99.90;;;;;;4998473;28;20135;-77
2022/09/11 07:32:22;;;;;;;22.15;16.00;;;16.60;99.90;;;;;;4977513;28;20658;-79
2022/09/11 07:34:48;;;;;;;21.02;15.27;;;16.70;99.90;;;;;;4981346;28;20168;-75
2022/09/11 07:37:14;;;;;;;19.52;15.32;;;16.90;99.90;;;;;;5014315;28;20165;-78
2022/09/11 07:39:40;;;;;;;22.77;15.32;;;16.80;99.90;;;;;;4980970;28;20129;-77
2022/09/11 07:42:06;;;;;;;18.23;15.05;;;16.90;99.90;;;;;;4978335;28;20142;-76
2022/09/11 07:44:33;;;;;;;16.42;14.38;;;16.90;99.90;;;;;;4997038;28;20120;-76
2022/09/11 07:46:59;;;;;;;19.77;14.55;;;16.90;99.90;;;;;;4994104;28;20419;-77
2022/09/11 07:49:26;;;;;;;19.88;11.65;;;17.00;99.90;;;;;;4982914;28;20045;-76
2022/09/11 07:51:53;;;;;;;18.25;12.18;;;17.10;99.90;;;;;;4981961;28;20153;-79
2022/09/11 07:54:20;;;;;;;8.73;6.15;;;17.10;99.90;;;;;;4995817;28;20034;-82
2022/09/11 07:56:47;;;;;;;15.20;11.15;;;17.20;99.90;;;;;;4978770;28;20130;-81
2022/09/11 07:59:13;;;;;;;9.32;6.30;;;17.20;99.90;;;;;;5001439;28;20042;-81
2022/09/11 08:01:39;;;;;;;7.45;5.43;;;17.40;99.90;;;;;;4982019;28;20033;-82
2022/09/11 08:04:06;;;;;;;7.50;5.55;;;17.50;99.90;;;;;;4985694;28;20034;-84
2022/09/11 08:06:34;;;;;;;11.60;8.18;;;17.60;99.90;;;;;;5000885;28;20128;-83
2022/09/11 08:09:03;;;;;;;8.18;5.25;;;17.60;99.90;;;;;;4995740;28;20164;-78
2022/09/11 08:11:30;;;;;;;4.43;3.78;;;17.70;99.90;;;;;;5002177;28;20038;-81
2022/09/11 08:14:02;;;;;;;9.00;4.70;;;17.80;99.90;;;;;;4997369;28;20054;-81
2022/09/11 08:16:28;;;;;;;8.13;3.95;;;17.90;99.90;;;;;;4996168;28;20511;-77
2022/09/11 08:18:54;;;;;;;8.85;4.10;;;18.00;99.90;;;;;;4999096;28;20045;-78
2022/09/11 08:21:21;;;;;;;10.57;4.10;;;18.10;99.90;;;;;;4997426;28;20061;-78
2022/09/11 08:23:47;;;;;;;6.30;3.13;;;18.10;99.90;;;;;;4997274;28;20125;-77
2022/09/11 08:26:16;;;;;;;6.45;2.95;;;18.30;99.90;;;;;;4980646;28;20133;-77
2022/09/11 08:28:43;;;;;;;7.38;2.78;;;18.30;99.90;;;;;;4980882;28;20049;-78
2022/09/11 08:31:11;;;;;;;5.90;1.80;;;18.40;99.90;;;;;;4998726;28;20216;-78
2022/09/11 08:33:37;;;;;;;4.22;2.03;;;18.50;99.90;;;;;;4985508;28;20046;-78
2022/09/11 08:36:08;;;;;;;8.30;2.33;;;18.50;99.90;;;;;;4980088;28;20140;-80
2022/09/11 08:38:35;;;;;;;6.63;2.25;;;18.60;99.90;;;;;;5016887;28;20049;-79
2022/09/11 08:41:31;;;;;;;7.45;2.40;;;18.80;99.90;;;;;;4997322;28;20450;-79
2022/09/11 08:44:00;;;;;;;6.57;2.50;;;18.90;99.90;;;;;;5018124;28;20061;-81
2022/09/11 08:46:42;;;;;;;7.70;2.50;;;19.10;99.90;;;;;;4980653;28;20123;-82
2022/09/11 08:49:13;;;;;;;7.43;2.33;;;19.10;99.90;;;;;;4999792;28;20117;-81
2022/09/11 08:51:39;;;;;;;5.22;1.77;;;19.30;99.90;;;;;;4981893;28;20343;-80
2022/09/11 08:54:05;;;;;;;3.40;1.73;;;19.20;99.90;;;;;;4985353;28;20064;-78
2022/09/11 08:56:35;;;;;;;6.00;2.17;;;19.30;99.90;;;;;;4998551;28;20308;-77
2022/09/11 08:59:23;;;;;;;4.68;1.85;;;19.30;99.90;;;;;;4982613;28;20049;-80
2022/09/11 09:02:30;;;;;;;3.80;1.77;;;19.40;99.90;;;;;;5001133;28;20062;-77
2022/09/11 09:05:13;;;;;;;8.27;1.70;;;19.40;99.90;;;;;;4994275;28;20053;-76
2022/09/11 09:08:03;;;;;;;4.93;1.88;;;19.50;99.90;;;;;;4980388;28;20100;-78
2022/09/11 09:10:38;;;;;;;4.22;1.80;;;19.50;99.90;;;;;;4996515;28;20038;-78
2022/09/11 09:13:14;;;;;;;;;;;19.60;99.90;;;;;;4998458;28;20044;-75
2022/09/11 09:15:52;;;;;;;6.70;1.70;;;19.60;99.90;;;;;;5016369;28;19996;-77
2022/09/11 09:18:42;;;;;;;5.15;1.60;;;19.70;99.90;;;;;;5002337;28;20046;-77
2022/09/11 09:21:23;;;;;;;4.55;1.30;;;19.70;99.90;;;;;;5000042;28;20034;-81
2022/09/11 09:23:59;;;;;;;5.85;1.40;;;19.90;99.90;;;;;;4985972;28;20078;-80
2022/09/11 09:26:38;;;;;;;4.80;1.42;;;20.00;99.90;;;;;;4978390;28;20060;-80
2022/09/11 09:29:23;;;;;;;4.80;1.27;;;20.30;99.90;;;;;;4986244;28;20432;-77
2022/09/11 09:31:58;;;;;;;3.00;1.20;;;20.50;99.90;;;;;;4995886;28;20038;-79
2022/09/11 09:34:27;;;;;;;5.13;1.33;;;20.80;99.90;;;;;;4983290;28;20128;-79
2022/09/11 09:37:14;;;;;;;2.70;1.27;;;21.10;99.90;;;;;;4988962;28;20042;-79
2022/09/11 09:39:39;;;;;;;5.90;1.50;;;21.20;99.90;;;;;;4985231;28;20475;-80
2022/09/11 09:42:39;;;;;;;2.58;1.08;;;21.00;99.90;;;;;;4985870;28;20045;-80
2022/09/11 09:45:31;;;;;;;3.85;2.33;;;21.00;99.90;;;;;;5017764;28;20040;-79
2022/09/11 09:47:57;;;;;;;4.68;2.60;;;20.90;99.90;;;;;;4982741;28;20072;-78
2022/09/11 09:50:34;;;;;;;5.75;2.72;;;20.80;99.90;;;;;;4965167;28;20477;-80
2022/09/11 09:53:40;;;;;;;7.93;2.72;;;20.50;99.90;;;;;;4970402;28;20060;-80
2022/09/11 09:56:06;;;;;;;10.00;3.72;;;20.20;99.90;;;;;;4889857;29;20579;-76
2022/09/11 09:58:38;;;;;;;9.90;3.20;;;20.00;99.90;;;;;;4902348;29;20582;-80
2022/09/11 10:01:26;;;;;;;5.45;2.92;;;19.80;99.90;;;;;;4888921;29;20087;-76
2022/09/11 10:04:26;;;;;;;6.78;3.38;;;19.70;99.90;;;;;;4877829;29;20157;-79
2022/09/11 10:07:03;;;;;;;9.52;4.90;;;19.60;99.90;;;;;;4800780;29;20153;-84
2022/09/11 10:09:30;;;;;;;7.88;4.40;;;19.60;99.90;;;;;;4819728;29;20134;-77
2022/09/11 10:12:06;;;;;;;11.60;4.25;;;19.60;99.90;;;;;;4816452;29;20058;-76
2022/09/11 10:14:56;;;;;;;7.75;3.80;;;19.70;99.90;;;;;;4816099;29;20555;-75
2022/09/11 10:17:28;;;;;;;6.88;3.08;;;19.70;99.90;;;;;;4776933;29;20046;-78
2022/09/11 10:19:56;;;;;;;5.82;2.90;;;19.60;99.90;;;;;;4798185;29;20942;-78
2022/09/11 10:22:30;;;;;;;5.70;2.72;;;19.70;99.90;;;;;;4798634;29;20566;-77
2022/09/11 10:24:59;;;;;;;6.50;2.90;;;19.70;99.90;;;;;;4787951;29;20058;-76
2022/09/11 10:27:27;;;;;;;5.88;2.50;;;19.70;99.90;;;;;;4799386;29;20086;-78
2022/09/11 10:29:53;;;;;;;7.30;2.55;;;19.70;99.90;;;;;;4774036;29;20146;-78
2022/09/11 10:32:21;;;;;;;5.93;2.17;;;19.80;99.90;;;;;;4814128;29;20558;-78
2022/09/11 10:34:47;;;;;;;3.63;2.08;;;19.80;99.90;;;;;;4874453;29;20075;-77
2022/09/11 10:37:13;;;;;;;6.55;2.20;;;19.90;99.90;;;;;;4874950;29;20076;-79
2022/09/11 10:39:41;;;;;;;4.82;2.17;;;19.90;99.90;;;;;;4874112;29;20087;-79
2022/09/11 10:42:15;;;;;;;4.22;2.13;;;19.90;99.90;;;;;;4886520;28;20190;-76
2022/09/11 10:44:45;;;;;;;;;;;20.00;99.90;;;;;;4950642;28;20046;-78
2022/09/11 10:47:20;;;;;;;6.97;1.70;;;20.10;99.90;;;;;;4950229;28;19918;-79
2022/09/11 10:49:47;;;;;;;2.45;1.50;;;20.20;99.90;;;;;;4943569;28;20047;-77
2022/09/11 10:52:12;;;;;;;6.20;1.40;;;20.30;99.90;;;;;;4934963;28;20117;-76
2022/09/11 10:55:11;;;;;;;4.97;1.58;;;20.60;99.90;;;;;;4980813;28;20038;-77
2022/09/11 10:57:40;;;;;;;4.50;1.30;;;20.80;99.90;;;;;;5003820;28;20170;-75
2022/09/11 11:00:19;;;;;;;2.85;1.40;;;21.10;99.90;;;;;;4978981;28;20042;-77
2022/09/11 11:02:50;;;;;;;4.50;1.45;;;21.50;99.90;;;;;;4999150;28;20112;-80
2022/09/11 11:05:37;;;;;;;2.85;1.10;;;21.50;99.90;;;;;;4986008;28;20049;-78
2022/09/11 11:08:26;;;;;;;5.03;1.48;;;21.50;99.90;;;;;;5003854;28;20128;-75
2022/09/11 11:11:14;;;;;;;3.55;1.30;;;21.60;99.90;;;;;;4998738;28;20044;-76
2022/09/11 11:14:04;;;;;;;2.38;1.23;;;21.50;99.90;;;;;;5018285;28;20046;-76
2022/09/11 11:17:07;;;;;;;3.97;1.50;;;21.20;99.90;;;;;;5003165;28;20061;-77
2022/09/11 11:19:40;;;;;;;3.45;1.52;;;21.10;99.90;;;;;;4997980;28;20054;-77
2022/09/11 11:22:33;;;;;;;3.33;1.10;;;21.00;99.90;;;;;;4981085;28;20386;-77
2022/09/11 11:25:18;;;;;;;5.10;1.30;;;21.00;99.90;;;;;;4977192;28;20157;-80
2022/09/11 11:28:17;;;;;;;5.80;1.20;;;21.00;99.90;;;;;;5006694;28;20042;-75
2022/09/11 11:31:00;;;;;;;4.32;1.25;;;21.00;99.90;;;;;;4995069;28;20140;-78
2022/09/11 11:33:45;;;;;;;4.05;1.45;;;20.80;99.90;;;;;;4985378;28;20048;-80
2022/09/11 11:36:19;;;;;;;2.05;1.10;;;20.90;99.90;;;;;;4991242;28;20081;-77
2022/09/11 11:38:59;;;;;;;5.43;1.40;;;21.00;99.90;;;;;;4995227;28;20762;-78
2022/09/11 11:41:30;;;;;;;4.22;1.10;;;21.10;99.90;;;;;;4996380;28;20142;-78
2022/09/11 11:44:00;;;;;;;4.55;1.00;;;21.60;99.90;;;;;;4978330;28;20042;-78
2022/09/11 11:46:37;;;;;;;3.78;1.23;;;22.10;99.90;;;;;;4994823;28;20141;-76
2022/09/11 11:49:19;;;;;;;4.90;1.50;;;22.60;99.90;;;;;;4977088;28;21103;-81
2022/09/11 11:52:24;;;;;;;3.05;1.20;;;23.30;99.90;;;;;;4978498;28;20109;-76
2022/09/11 11:55:00;;;;;;;3.70;1.10;;;23.90;99.90;;;;;;4967424;28;20502;-79
2022/09/11 11:57:30;;;;;;;3.05;1.02;;;24.50;99.90;;;;;;5001069;28;20060;-78
2022/09/11 12:00:00;;;;;;;2.28;0.90;;;24.90;99.90;;;;;;4973973;28;20404;-78
2022/09/11 12:02:55;;;;;;;3.95;1.35;;;25.00;99.90;;;;;;4969822;28;20469;-79
2022/09/11 12:05:30;;;;;;;4.28;1.30;;;25.00;99.90;;;;;;4949549;28;20047;-80
2022/09/11 12:07:57;;;;;;;4.07;1.15;;;24.90;99.90;;;;;;4949923;28;20051;-77
2022/09/11 12:10:30;;;;;;;2.35;1.10;;;24.70;99.90;;;;;;4946836;28;20049;-80
2022/09/11 12:13:00;;;;;;;3.83;1.10;;;24.00;99.90;;;;;;4950555;28;20134;-81
2022/09/11 12:15:30;;;;;;;5.93;1.42;;;23.60;99.90;;;;;;4952963;28;20125;-79
2022/09/11 12:17:59;;;;;;;3.35;1.30;;;23.70;99.90;;;;;;4954423;28;20047;-78
2022/09/11 12:20:39;;;;;;;4.03;1.05;;;23.80;99.90;;;;;;4953666;28;20399;-75
2022/09/11 12:23:29;;;;;;;5.50;1.27;;;24.30;99.90;;;;;;4949148;28;20154;-76
2022/09/11 12:26:07;;;;;;;4.20;1.10;;;23.80;99.90;;;;;;4960730;28;20223;-80
2022/09/11 12:28:34;;;;;;;5.75;1.30;;;24.40;99.90;;;;;;4949274;28;20118;-76
2022/09/11 12:31:05;;;;;;;4.40;1.05;;;24.50;99.90;;;;;;4967853;28;20039;-78
2022/09/11 12:33:39;;;;;;;3.33;1.23;;;24.20;99.90;;;;;;4975379;28;20039;-77
2022/09/11 12:36:41;;;;;;;2.97;1.20;;;24.10;99.90;;;;;;4974035;28;20050;-77
2022/09/11 12:39:18;;;;;;;2.58;1.17;;;23.60;99.90;;;;;;4968962;28;20077;-80
2022/09/11 12:41:44;;;;;;;3.28;1.35;;;23.40;99.90;;;;;;4976718;28;20358;-76
2022/09/11 12:44:55;;;;;;;5.25;1.33;;;23.40;99.90;;;;;;4991832;28;20128;-78
2022/09/11 12:47:31;;;;;;;5.30;1.15;;;23.40;99.90;;;;;;4990475;28;20133;-79
2022/09/11 12:50:21;;;;;;;2.15;0.80;;;23.50;99.90;;;;;;4990546;28;20049;-75
2022/09/11 12:52:53;;;;;;;5.53;1.30;;;23.30;99.90;;;;;;4985552;28;20125;-79
2022/09/11 12:55:42;;;;;;;2.40;0.90;;;23.30;99.90;;;;;;4989239;28;20070;-79
2022/09/11 12:58:30;;;;;;;3.17;1.10;;;23.30;99.90;;;;;;4992658;28;20054;-79
2022/09/11 13:01:11;;;;;;;2.38;0.90;;;23.30;99.90;;;;;;4964079;28;20050;-79
2022/09/11 13:03:55;;;;;;;4.55;1.10;;;23.40;99.90;;;;;;5001935;28;20084;-76